createdAt,value
2022-12-02T00:01:22.896Z,63.50
2022-12-02T00:03:51.570Z,63.40
2022-12-02T00:06:27.671Z,63.40
2022-12-02T00:08:59.851Z,63.40
2022-12-02T00:11:31.099Z,63.40
2022-12-02T00:14:03.875Z,63.30
2022-12-02T00:16:33.926Z,63.40
2022-12-02T00:19:02.635Z,63.50
2022-12-02T00:21:31.430Z,63.40
2022-12-02T00:24:01.856Z,64.10
2022-12-02T00:26:30.258Z,63.40
2022-12-02T00:28:58.811Z,63.60
2022-12-02T00:31:29.447Z,63.70
2022-12-02T00:34:00.511Z,63.50
2022-12-02T00:36:29.457Z,63.60
2022-12-02T00:39:00.042Z,63.40
2022-12-02T00:41:28.478Z,63.50
2022-12-02T00:44:14.438Z,63.50
2022-12-02T00:46:43.821Z,63.60
2022-12-02T00:49:17.179Z,63.50
2022-12-02T00:51:47.901Z,63.50
2022-12-02T00:54:16.656Z,63.60
2022-12-02T00:56:45.368Z,63.50
2022-12-02T00:59:19.712Z,63.60
2022-12-02T01:01:49.178Z,63.60
2022-12-02T01:04:20.051Z,63.60
2022-12-02T01:06:49.478Z,63.60
2022-12-02T01:09:17.890Z,63.50
2022-12-02T01:11:47.397Z,63.60
2022-12-02T01:14:15.819Z,63.40
2022-12-02T01:16:45.474Z,63.60
2022-12-02T01:19:14.835Z,63.50
2022-12-02T01:21:44.585Z,63.40
2022-12-02T01:24:15.370Z,63.40
2022-12-02T01:26:44.826Z,63.40
2022-12-02T01:29:14.369Z,63.40
2022-12-02T01:31:43.899Z,63.30
2022-12-02T01:34:12.437Z,63.30
2022-12-02T01:36:41.798Z,63.30
2022-12-02T01:39:11.602Z,63.30
2022-12-02T01:41:45.915Z,63.30
2022-12-02T01:44:14.557Z,63.20
2022-12-02T01:46:44.381Z,63.20
2022-12-02T01:49:12.819Z,63.30
2022-12-02T01:51:48.131Z,63.30
2022-12-02T01:54:17.878Z,63.20
2022-12-02T01:56:53.324Z,63.20
2022-12-02T01:59:24.657Z,63.30
2022-12-02T02:01:54.094Z,63.10
2022-12-02T02:04:24.796Z,63.00
2022-12-02T02:06:55.544Z,63.00
2022-12-02T02:09:27.279Z,63.10
2022-12-02T02:11:57.217Z,63.20
2022-12-02T02:14:25.627Z,63.20
2022-12-02T02:16:55.079Z,63.30
2022-12-02T02:19:24.647Z,63.20
2022-12-02T02:21:54.539Z,63.20
2022-12-02T02:24:24.966Z,63.20
2022-12-02T02:26:55.518Z,63.20
2022-12-02T02:29:23.910Z,63.20
2022-12-02T02:31:53.340Z,63.10
2022-12-02T02:34:22.888Z,63.10
2022-12-02T02:36:51.472Z,63.00
2022-12-02T02:39:20.755Z,63.00
2022-12-02T02:41:51.838Z,63.00
2022-12-02T02:44:25.723Z,63.00
2022-12-02T02:46:54.508Z,63.00
2022-12-02T02:49:23.186Z,62.90
2022-12-02T02:51:52.774Z,63.00
2022-12-02T02:54:24.423Z,62.90
2022-12-02T02:56:55.594Z,63.00
2022-12-02T02:59:25.855Z,63.10
2022-12-02T03:01:54.988Z,63.00
2022-12-02T03:04:26.102Z,63.10
2022-12-02T03:06:56.660Z,63.00
2022-12-02T03:09:25.829Z,63.10
2022-12-02T03:11:58.378Z,63.10
2022-12-02T03:14:28.760Z,63.00
2022-12-02T03:16:58.784Z,63.00
2022-12-02T03:19:27.764Z,63.00
2022-12-02T03:21:57.931Z,62.90
2022-12-02T03:24:27.768Z,63.00
2022-12-02T03:26:57.683Z,63.00
2022-12-02T03:29:26.106Z,62.90
2022-12-02T03:31:54.888Z,62.90
2022-12-02T03:34:24.540Z,63.00
2022-12-02T03:36:55.767Z,63.00
2022-12-02T03:39:25.482Z,63.10
2022-12-02T03:41:55.072Z,63.00
2022-12-02T03:44:25.047Z,63.10
2022-12-02T03:46:53.688Z,63.10
2022-12-02T03:49:22.504Z,63.20
2022-12-02T03:51:52.326Z,63.20
2022-12-02T03:54:21.871Z,63.20
2022-12-02T03:56:57.229Z,63.30
2022-12-02T03:59:29.600Z,63.10
2022-12-02T04:01:58.189Z,63.30
2022-12-02T04:04:28.774Z,63.20
2022-12-02T04:06:59.096Z,63.10
2022-12-02T04:09:27.538Z,63.20
2022-12-02T04:12:01.859Z,63.30
2022-12-02T04:14:31.564Z,63.40
2022-12-02T04:17:06.784Z,63.40
2022-12-02T04:19:36.521Z,63.50
2022-12-02T04:22:05.003Z,63.50
2022-12-02T04:24:39.484Z,63.50
2022-12-02T04:27:07.804Z,63.60
2022-12-02T04:29:37.654Z,63.50
2022-12-02T04:32:12.083Z,63.40
2022-12-02T04:34:41.475Z,63.50
2022-12-02T04:37:11.998Z,63.50
2022-12-02T04:39:40.391Z,63.50
2022-12-02T04:42:10.059Z,63.50
2022-12-02T04:44:39.808Z,63.60
2022-12-02T04:47:08.406Z,63.70
2022-12-02T04:49:36.685Z,63.70
2022-12-02T04:52:05.260Z,63.70
2022-12-02T04:54:33.633Z,63.80
2022-12-02T04:57:02.073Z,63.80
2022-12-02T04:59:30.435Z,63.70
2022-12-02T05:02:01.187Z,63.70
2022-12-02T05:04:40.118Z,63.60
2022-12-02T05:07:10.075Z,63.60
2022-12-02T05:09:39.495Z,63.60
2022-12-02T05:12:08.965Z,63.60
2022-12-02T05:14:44.444Z,63.60
2022-12-02T05:17:14.155Z,63.60
2022-12-02T05:19:43.628Z,63.60
2022-12-02T05:22:12.004Z,63.70
2022-12-02T05:24:40.990Z,63.90
2022-12-02T05:27:10.350Z,64.00
2022-12-02T05:29:38.795Z,64.00
2022-12-02T05:32:08.330Z,64.00
2022-12-02T05:34:38.449Z,64.00
2022-12-02T05:37:06.975Z,63.90
2022-12-02T05:39:35.638Z,64.00
2022-12-02T05:42:08.629Z,64.10
2022-12-02T05:44:39.912Z,64.00
2022-12-02T05:47:13.024Z,64.10
2022-12-02T05:49:44.503Z,64.30
2022-12-02T05:52:23.527Z,64.20
2022-12-02T05:54:54.628Z,64.10
2022-12-02T05:57:28.365Z,64.10
2022-12-02T06:00:07.626Z,64.30
2022-12-02T06:02:41.203Z,64.30
2022-12-02T06:05:22.053Z,64.40
2022-12-02T06:07:56.426Z,64.40
2022-12-02T06:10:29.515Z,64.60
2022-12-02T06:13:00.881Z,64.50
2022-12-02T06:15:36.586Z,64.50
2022-12-02T06:18:14.652Z,64.60
2022-12-02T06:20:47.597Z,64.60
2022-12-02T06:23:20.728Z,64.60
2022-12-02T06:25:52.823Z,64.60
2022-12-02T06:28:26.661Z,64.60
2022-12-02T06:30:59.686Z,64.60
2022-12-02T06:33:31.909Z,64.60
2022-12-02T06:36:05.066Z,64.80
2022-12-02T06:38:42.315Z,64.80
2022-12-02T06:41:16.552Z,64.70
2022-12-02T06:44:06.768Z,64.70
2022-12-02T06:46:36.194Z,64.60
2022-12-02T06:49:16.767Z,64.60
2022-12-02T06:51:48.407Z,64.60
2022-12-02T06:54:20.974Z,64.70
2022-12-02T06:56:52.403Z,64.70
2022-12-02T06:59:24.490Z,64.60
2022-12-02T07:01:56.798Z,64.70
2022-12-02T07:04:45.292Z,64.80
2022-12-02T07:07:19.413Z,65.00
2022-12-02T07:09:49.497Z,64.90
2022-12-02T07:12:21.629Z,65.10
2022-12-02T07:14:52.810Z,65.10
2022-12-02T07:17:26.473Z,65.10
2022-12-02T07:20:04.071Z,65.20
2022-12-02T07:22:37.043Z,65.30
2022-12-02T07:25:31.384Z,65.30
2022-12-02T07:28:00.297Z,65.60
2022-12-02T07:30:31.129Z,65.70
2022-12-02T07:33:00.268Z,65.70
2022-12-02T07:35:29.226Z,65.80
2022-12-02T07:38:00.101Z,66.00
2022-12-02T07:40:29.676Z,66.10
2022-12-02T07:42:59.675Z,66.20
2022-12-02T07:45:28.214Z,66.50
2022-12-02T07:47:56.567Z,66.60
2022-12-02T07:50:24.980Z,66.70
2022-12-02T07:52:53.820Z,66.70
2022-12-02T07:55:26.430Z,66.80
2022-12-02T07:57:57.510Z,67.00
2022-12-02T08:00:25.904Z,67.20
2022-12-02T08:02:56.389Z,67.30
2022-12-02T08:05:25.963Z,67.10
2022-12-02T08:07:54.473Z,67.20
2022-12-02T08:10:25.567Z,67.40
2022-12-02T08:12:54.870Z,67.50
2022-12-02T08:15:26.606Z,67.50
2022-12-02T08:17:55.623Z,67.70
2022-12-02T08:20:23.856Z,67.90
2022-12-02T08:22:52.878Z,68.10
2022-12-02T08:25:21.189Z,68.10
2022-12-02T08:27:52.897Z,68.40
2022-12-02T08:30:21.574Z,68.50
2022-12-02T08:32:51.291Z,68.60
2022-12-02T08:35:21.712Z,68.80
2022-12-02T08:37:50.076Z,68.90
2022-12-02T08:40:20.556Z,69.00
2022-12-02T08:42:48.940Z,69.10
2022-12-02T08:45:18.962Z,69.20
2022-12-02T08:47:47.376Z,69.40
2022-12-02T08:50:15.766Z,69.60
2022-12-02T08:52:44.130Z,69.60
2022-12-02T08:55:12.583Z,69.80
2022-12-02T08:57:40.948Z,69.90
2022-12-02T09:00:11.172Z,70.10
2022-12-02T09:02:42.764Z,70.20
2022-12-02T09:05:11.299Z,70.40
2022-12-02T09:07:40.069Z,70.40
2022-12-02T09:10:10.421Z,70.60
2022-12-02T09:12:39.865Z,70.80
2022-12-02T09:15:09.218Z,71.00
2022-12-02T09:17:37.646Z,71.40
2022-12-02T09:20:08.713Z,71.60
2022-12-02T09:22:41.196Z,71.70
2022-12-02T09:25:09.928Z,71.90
2022-12-02T09:27:46.131Z,72.10
2022-12-02T09:30:16.295Z,72.00
2022-12-02T09:32:44.591Z,72.00
2022-12-02T09:35:15.488Z,72.00
2022-12-02T09:37:43.942Z,72.00
2022-12-02T09:40:13.382Z,71.90
2022-12-02T09:42:49.124Z,71.90
2022-12-02T09:45:21.859Z,71.80
2022-12-02T09:47:50.405Z,71.70
2022-12-02T09:50:20.547Z,71.60
2022-12-02T09:52:50.171Z,71.60
2022-12-02T09:55:20.837Z,71.70
2022-12-02T09:57:49.222Z,71.80
2022-12-02T10:00:20.131Z,71.80
2022-12-02T10:02:51.678Z,71.70
2022-12-02T10:05:24.520Z,71.60
2022-12-02T10:07:56.990Z,71.60
2022-12-02T10:10:28.470Z,71.60
2022-12-02T10:12:58.616Z,71.60
2022-12-02T10:15:31.856Z,71.90
2022-12-02T10:18:08.484Z,72.00
2022-12-02T10:20:39.162Z,71.80
2022-12-02T10:23:11.511Z,71.80
2022-12-02T10:25:42.246Z,71.90
2022-12-02T10:28:25.363Z,71.90
2022-12-02T10:30:56.648Z,71.80
2022-12-02T10:33:27.799Z,71.70
2022-12-02T10:36:00.590Z,71.80
2022-12-02T10:38:38.439Z,71.70
2022-12-02T15:00:38.898Z,66.70
2022-12-02T15:03:07.234Z,68.10
2022-12-02T15:05:36.600Z,69.40
2022-12-02T15:08:05.581Z,70.40
2022-12-02T15:10:38.464Z,70.70
2022-12-02T15:13:10.104Z,70.90
2022-12-02T15:15:40.493Z,70.70
2022-12-02T15:18:09.162Z,70.50
2022-12-02T15:20:37.354Z,70.40
2022-12-02T15:23:05.601Z,70.20
2022-12-02T15:25:33.845Z,70.00
2022-12-02T15:28:01.989Z,69.60
2022-12-02T15:30:30.203Z,69.30
2022-12-02T15:32:59.748Z,69.20
2022-12-02T15:35:27.998Z,68.90
2022-12-02T15:37:56.264Z,68.70
2022-12-02T15:40:24.409Z,68.50
2022-12-02T15:42:52.651Z,68.20
2022-12-02T15:45:21.268Z,68.00
2022-12-02T15:47:50.553Z,67.70
2022-12-02T15:50:20.183Z,67.60
2022-12-02T15:52:48.638Z,67.60
2022-12-02T15:55:17.072Z,67.50
2022-12-02T15:57:45.266Z,67.20
2022-12-02T16:00:14.212Z,66.90
2022-12-02T16:02:42.545Z,66.60
2022-12-02T16:05:10.848Z,66.30
2022-12-02T16:07:40.385Z,66.00
2022-12-02T16:10:10.040Z,65.60
2022-12-02T16:12:38.279Z,65.40
2022-12-02T16:15:07.441Z,65.20
2022-12-02T16:17:35.758Z,65.10
2022-12-02T16:20:04.231Z,64.90
2022-12-02T16:22:35.114Z,64.80
2022-12-02T16:25:05.298Z,64.60
2022-12-02T16:27:33.451Z,64.50
2022-12-02T16:30:01.656Z,64.20
2022-12-02T16:32:29.980Z,64.10
2022-12-02T16:34:58.169Z,63.90
2022-12-02T16:37:26.359Z,63.90
2022-12-02T16:39:54.568Z,63.90
2022-12-02T16:42:24.126Z,63.70
2022-12-02T16:44:55.736Z,63.60
2022-12-02T16:47:24.473Z,63.60
2022-12-02T16:49:53.316Z,63.40
2022-12-02T16:52:21.782Z,63.30
2022-12-02T16:54:50.694Z,63.10
2022-12-02T16:57:19.139Z,63.10
2022-12-02T16:59:49.728Z,63.00
2022-12-02T17:02:17.908Z,63.00
2022-12-02T17:04:46.586Z,62.80
2022-12-02T17:07:14.825Z,62.70
2022-12-02T17:09:43.044Z,62.60
2022-12-02T17:12:11.211Z,62.70
2022-12-02T17:14:39.459Z,62.50
2022-12-02T17:17:30.431Z,62.50
2022-12-02T17:19:57.377Z,63.10
2022-12-02T17:22:25.879Z,62.40
2022-12-02T17:24:54.513Z,62.40
2022-12-02T17:27:22.931Z,62.40
2022-12-02T17:29:51.088Z,62.50
2022-12-02T17:32:20.950Z,62.40
2022-12-02T17:34:49.249Z,62.10
2022-12-02T17:37:17.792Z,62.10
2022-12-02T17:39:46.149Z,62.10
2022-12-02T17:42:14.620Z,62.10
2022-12-02T17:44:43.072Z,62.00
2022-12-02T17:47:11.312Z,62.00
2022-12-02T17:49:40.968Z,62.00
2022-12-02T17:52:24.085Z,62.10
2022-12-02T17:54:52.808Z,62.10
2022-12-02T17:57:21.215Z,62.00
2022-12-02T17:59:49.396Z,61.90
2022-12-02T18:02:18.003Z,61.90
2022-12-02T18:04:47.741Z,62.00
2022-12-02T18:07:16.006Z,62.00
2022-12-02T18:09:44.291Z,61.90
2022-12-02T18:12:12.799Z,61.70
2022-12-02T18:14:41.064Z,61.90
2022-12-02T18:17:09.281Z,61.80
2022-12-02T18:19:37.633Z,61.90
2022-12-02T18:22:07.276Z,61.90
2022-12-02T18:24:35.945Z,61.90
2022-12-02T18:27:04.416Z,61.90
2022-12-02T18:29:32.655Z,61.90
2022-12-02T18:32:00.890Z,61.70
2022-12-02T18:34:30.213Z,61.70
2022-12-02T18:36:58.625Z,61.70
2022-12-02T18:39:28.225Z,61.70
2022-12-02T18:41:56.394Z,61.70
2022-12-02T18:44:24.845Z,61.60
2022-12-02T18:46:53.246Z,61.50
2022-12-02T18:49:21.534Z,61.50
2022-12-02T18:51:49.940Z,61.60
2022-12-02T18:54:18.378Z,61.60
2022-12-02T18:56:50.039Z,61.60
2022-12-02T18:59:18.289Z,61.70
2022-12-02T19:01:46.519Z,61.60
2022-12-02T19:04:15.058Z,61.50
2022-12-02T19:06:44.457Z,61.50
2022-12-02T19:09:12.873Z,61.50
2022-12-02T19:11:41.380Z,61.60
2022-12-02T19:14:10.947Z,62.30
2022-12-02T19:16:39.396Z,61.50
2022-12-02T19:19:07.667Z,61.40
2022-12-02T19:21:35.909Z,61.40
2022-12-02T19:24:04.387Z,61.80
2022-12-02T19:26:32.656Z,61.50
2022-12-02T19:29:00.906Z,61.40
2022-12-02T19:31:31.331Z,61.40
2022-12-02T19:33:59.862Z,61.30
2022-12-02T19:36:28.067Z,61.40
2022-12-02T19:38:56.336Z,61.30
2022-12-02T19:41:24.720Z,61.30
2022-12-02T19:43:52.895Z,61.40
2022-12-02T19:46:21.373Z,61.50
2022-12-02T19:48:51.014Z,61.50
2022-12-02T19:51:19.326Z,61.50
2022-12-02T19:53:47.597Z,61.50
2022-12-02T19:56:15.839Z,61.50
2022-12-02T19:58:43.995Z,61.50
2022-12-02T20:01:12.297Z,61.60
2022-12-02T20:03:40.549Z,61.60
2022-12-02T20:06:10.448Z,61.60
2022-12-02T20:08:38.784Z,61.70
2022-12-02T20:11:07.336Z,61.60
2022-12-02T20:13:35.709Z,61.60
2022-12-02T20:16:04.127Z,61.60
2022-12-02T20:18:32.313Z,61.60
2022-12-02T20:21:00.535Z,61.70
2022-12-02T20:23:30.145Z,61.90
2022-12-02T20:25:58.363Z,62.00
2022-12-02T20:28:26.936Z,62.10
2022-12-02T20:30:55.243Z,62.20
2022-12-02T20:33:23.529Z,62.30
2022-12-02T20:35:51.716Z,62.30
2022-12-02T20:38:19.922Z,62.30
2022-12-02T20:40:50.555Z,62.40
2022-12-02T20:43:20.754Z,62.90
2022-12-02T20:45:48.941Z,62.30
2022-12-02T20:48:17.091Z,62.20
2022-12-02T20:50:45.472Z,62.30
2022-12-02T20:53:13.686Z,62.40
2022-12-02T20:55:41.921Z,62.40
2022-12-02T20:58:11.892Z,62.50
2022-12-02T21:00:40.332Z,61.90
2022-12-02T21:03:09.620Z,62.70
2022-12-02T21:05:38.365Z,62.70
2022-12-02T21:08:07.006Z,62.60
2022-12-02T21:10:35.596Z,62.70
2022-12-02T21:13:05.631Z,62.70
2022-12-02T21:15:35.633Z,62.70
2022-12-02T21:18:04.039Z,62.60
2022-12-02T21:20:34.524Z,62.60
2022-12-02T21:23:04.840Z,62.80
2022-12-02T21:25:33.230Z,62.70
2022-12-02T21:28:01.639Z,62.60
2022-12-02T21:30:31.455Z,62.60
2022-12-02T21:33:01.054Z,62.70
2022-12-02T21:35:29.524Z,62.60
2022-12-02T21:37:58.484Z,62.70
2022-12-02T21:40:26.863Z,62.70
2022-12-02T21:42:55.101Z,62.70
2022-12-02T21:45:23.700Z,62.70
2022-12-02T21:47:52.086Z,62.70
2022-12-02T21:50:21.748Z,62.80
2022-12-02T21:52:50.057Z,62.70
2022-12-02T21:55:18.530Z,62.70
2022-12-02T21:57:46.728Z,62.70
2022-12-02T22:00:16.492Z,62.70
2022-12-02T22:02:44.809Z,62.70
2022-12-02T22:05:13.124Z,62.70
2022-12-02T22:07:43.297Z,62.80
2022-12-02T22:10:14.591Z,62.90
2022-12-02T22:12:43.803Z,62.80
2022-12-02T22:15:13.478Z,62.80
2022-12-02T22:17:42.243Z,62.80
2022-12-02T22:20:12.503Z,62.90
2022-12-02T22:22:42.200Z,62.90
2022-12-02T22:25:12.296Z,62.90
2022-12-02T22:27:40.526Z,62.90
2022-12-02T22:30:10.837Z,63.00
2022-12-02T22:32:39.052Z,63.00
2022-12-02T22:35:08.983Z,63.20
2022-12-02T22:37:37.597Z,63.30
2022-12-02T22:40:09.037Z,63.20
2022-12-02T22:42:37.330Z,63.40
2022-12-02T22:45:06.645Z,63.40
2022-12-02T22:47:35.025Z,63.40
2022-12-02T22:50:03.378Z,63.40
2022-12-02T22:52:31.618Z,63.40
2022-12-02T22:55:00.093Z,63.40
2022-12-02T22:57:29.730Z,63.40
2022-12-02T22:59:57.894Z,63.30
2022-12-02T23:02:26.450Z,63.30
2022-12-02T23:04:55.247Z,63.20
2022-12-02T23:07:24.757Z,63.20
2022-12-02T23:09:53.016Z,63.10
2022-12-02T23:12:21.285Z,63.10
2022-12-02T23:14:51.145Z,63.10
2022-12-02T23:17:19.856Z,63.20
2022-12-02T23:19:48.037Z,63.80
2022-12-02T23:22:16.203Z,63.00
2022-12-02T23:24:44.407Z,63.00
2022-12-02T23:27:12.622Z,63.00
2022-12-02T23:29:41.897Z,62.90
2022-12-02T23:32:11.410Z,62.80
2022-12-02T23:34:39.571Z,62.80
2022-12-02T23:37:07.761Z,62.70
2022-12-02T23:39:35.943Z,62.60
2022-12-02T23:42:04.304Z,62.60
2022-12-02T23:44:32.455Z,62.50
2022-12-02T23:47:00.688Z,62.50
2022-12-02T23:49:30.228Z,62.40
2022-12-02T23:51:58.833Z,62.40
2022-12-02T23:54:27.148Z,62.40
2022-12-02T23:56:55.332Z,62.40
2022-12-02T23:59:23.771Z,62.40
